Time;durP1;ratioP1;P1;durP2;ratioP2;P2;SDS_P1;SDS_P2;PMS_P1;PMS_P2;Temp;Humidity;BMP_temperature;BMP_pressure;BME280_temperature;BME280_humidity;BME280_pressure;Samples;Min_cycle;Max_cycle;Signal;HPM_P1;HPM_P2
2022/06/28 00:01:41;;;;;;;;;;;14.50;99.90;;;;;;5115124;27;19919;-74
2022/06/28 00:04:07;;;;;;;;;;;14.50;99.90;;;;;;5113655;27;19930;-73
2022/06/28 00:06:33;;;;;;;;;;;14.40;99.90;;;;;;5115738;27;19920;-74
2022/06/28 00:08:58;;;;;;;;;;;14.40;99.90;;;;;;5115193;27;20368;-75
2022/06/28 00:11:24;;;;;;;;;;;14.40;99.90;;;;;;5115962;27;19920;-74
2022/06/28 00:13:50;;;;;;;;;;;14.40;99.90;;;;;;5115451;27;19930;-74
2022/06/28 00:16:16;;;;;;;;;;;14.40;99.90;;;;;;5116714;27;19945;-74
2022/06/28 00:18:43;;;;;;;;;;;14.30;99.90;;;;;;5121137;27;20446;-75
2022/06/28 00:21:09;;;;;;;;;;;14.30;99.90;;;;;;5133526;27;19969;-74
2022/06/28 00:23:35;;;;;;;;;;;14.30;99.90;;;;;;5121166;27;19923;-73
2022/06/28 00:26:02;;;;;;;;;;;14.20;99.90;;;;;;5112999;27;19955;-74
2022/06/28 00:28:27;;;;;;;;;;;14.20;99.90;;;;;;5133139;27;20296;-74
2022/06/28 00:30:53;;;;;;;;;;;14.30;99.90;;;;;;5120413;27;20014;-74
2022/06/28 00:33:18;;;;;;;;;;;14.20;99.90;;;;;;5133333;27;19920;-73
2022/06/28 00:35:44;;;;;;;;;;;14.20;99.90;;;;;;5133710;27;19970;-73
2022/06/28 00:38:09;;;;;;;;;;;14.20;99.90;;;;;;5133970;27;19919;-74
2022/06/28 00:40:49;;;;;;;;;;;14.10;99.90;;;;;;5118416;27;19919;-74
2022/06/28 00:43:15;;;;;;;;;;;14.10;99.90;;;;;;5113637;27;19973;-73
2022/06/28 00:45:44;;;;;;;;;;;14.10;99.90;;;;;;5113670;27;19923;-74
2022/06/28 00:48:13;;;;;;;;;;;14.10;99.90;;;;;;5112354;27;19926;-74
2022/06/28 00:50:39;;;;;;;;;;;14.10;99.90;;;;;;5113249;27;19977;-73
2022/06/28 00:53:12;;;;;;;;;;;14.00;99.90;;;;;;5113314;27;19975;-74
2022/06/28 00:55:38;;;;;;;;;;;14.00;99.90;;;;;;5113196;27;19924;-74
2022/06/28 00:58:04;;;;;;;;;;;13.90;99.90;;;;;;5113241;28;19931;-74
2022/06/28 01:00:31;;;;;;;;;;;13.90;99.90;;;;;;5113629;28;19942;-73
2022/06/28 01:02:57;;;;;;;;;;;13.90;99.90;;;;;;5113498;27;19927;-74
2022/06/28 01:05:22;;;;;;;;;;;13.90;99.90;;;;;;5113284;27;19920;-74
2022/06/28 01:07:48;;;;;;;;;;;13.90;99.90;;;;;;5111620;28;20005;-74
2022/06/28 01:10:13;;;;;;;;;;;13.90;99.90;;;;;;5112676;27;19920;-73
2022/06/28 01:12:39;;;;;;;;;;;13.80;99.90;;;;;;5122659;27;19919;-74
2022/06/28 01:15:05;;;;;;;;;;;13.80;99.90;;;;;;5115650;27;20495;-74
2022/06/28 01:17:31;;;;;;;;;;;13.80;99.90;;;;;;5113443;27;19919;-74
2022/06/28 01:19:57;;;;;;;;;;;13.70;99.90;;;;;;5126013;27;19920;-73
2022/06/28 01:22:23;;;;;;;;;;;13.70;99.90;;;;;;5113070;28;19919;-74
2022/06/28 01:24:49;;;;;;;;;;;13.70;99.90;;;;;;5116568;27;19989;-74
2022/06/28 01:27:15;;;;;;;;;;;13.70;99.90;;;;;;5121978;27;19920;-74
2022/06/28 01:29:40;;;;;;;;;;;13.60;99.90;;;;;;5112283;28;19926;-74
2022/06/28 01:32:06;;;;;;;;;;;13.60;99.90;;;;;;5112851;27;19927;-74
2022/06/28 01:34:32;;;;;;;;;;;13.60;99.90;;;;;;5112842;27;20305;-74
2022/06/28 01:36:57;;;;;;;;;;;13.60;99.90;;;;;;5112227;28;19939;-74
2022/06/28 01:39:23;;;;;;;;;;;13.50;99.90;;;;;;5112371;27;19920;-75
2022/06/28 01:41:51;;;;;;;;;;;13.50;99.90;;;;;;5111006;28;19920;-74
2022/06/28 01:44:17;;;;;;;;;;;13.50;99.90;;;;;;5094141;28;19934;-74
2022/06/28 01:46:43;;;;;;;;;;;13.50;99.90;;;;;;5112242;28;20010;-74
2022/06/28 01:49:08;;;;;;;;;;;13.50;99.90;;;;;;5112584;27;19999;-74
2022/06/28 01:51:34;;;;;;;;;;;13.50;99.90;;;;;;5112507;27;19926;-74
2022/06/28 01:54:00;;;;;;;;;;;13.50;99.90;;;;;;5111772;28;19989;-74
2022/06/28 01:56:25;;;;;;;;;;;13.50;99.90;;;;;;5112028;28;20389;-73
2022/06/28 01:58:51;;;;;;;;;;;13.50;99.90;;;;;;5111913;27;19920;-74
2022/06/28 02:01:16;;;;;;;;;;;13.50;99.90;;;;;;5122173;27;19923;-74
2022/06/28 02:03:42;;;;;;;;;;;13.50;99.90;;;;;;5127057;27;19928;-74
2022/06/28 02:06:08;;;;;;;;;;;13.50;99.90;;;;;;5111791;28;19927;-74
2022/06/28 02:08:35;;;;;;;;;;;13.50;99.90;;;;;;5115525;27;19962;-74
2022/06/28 02:11:01;;;;;;;;;;;13.50;99.90;;;;;;5131985;27;19923;-74
2022/06/28 02:13:26;;;;;;;;;;;13.50;99.90;;;;;;5127932;27;19930;-74
2022/06/28 02:15:52;;;;;;;;;;;13.50;99.90;;;;;;5122412;27;20002;-74
2022/06/28 02:18:17;;;;;;;;;;;13.50;99.90;;;;;;5132134;27;20026;-74
2022/06/28 02:20:43;;;;;;;;;;;13.50;99.90;;;;;;5121311;27;19942;-74
2022/06/28 02:23:08;;;;;;;;;;;13.50;99.90;;;;;;5110571;28;20010;-74
2022/06/28 02:25:34;;;;;;;;;;;13.50;99.90;;;;;;5111489;27;19919;-74
2022/06/28 02:27:59;;;;;;;;;;;13.40;99.90;;;;;;5112528;27;19967;-74
2022/06/28 02:30:25;;;;;;;;;;;13.40;99.90;;;;;;5112129;27;19963;-74
2022/06/28 02:32:50;;;;;;;;;;;13.40;99.90;;;;;;5112144;27;19959;-74
2022/06/28 02:40:44;;;;;;;;;;;13.40;99.90;;;;;;5111874;27;19919;-74
2022/06/28 02:43:10;;;;;;;;;;;13.40;99.90;;;;;;5126286;27;20357;-74
2022/06/28 02:45:35;;;;;;;;;;;13.40;99.90;;;;;;5124901;27;19926;-74
2022/06/28 02:48:02;;;;;;;;;;;13.40;99.90;;;;;;5119721;27;19926;-74
2022/06/28 02:50:27;;;;;;;;;;;13.40;99.90;;;;;;5111104;28;20392;-74
2022/06/28 02:52:53;;;;;;;;;;;13.30;99.90;;;;;;5110762;27;19919;-73
2022/06/28 02:55:18;;;;;;;;;;;13.30;99.90;;;;;;5124116;27;19920;-74
2022/06/28 02:57:47;;;;;;;;;;;13.30;99.90;;;;;;5110609;28;20427;-74
2022/06/28 03:00:14;;;;;;;;;;;13.30;99.90;;;;;;5109845;28;19926;-74
2022/06/28 03:02:40;;;;;;;;;;;13.30;99.90;;;;;;5111385;27;19970;-74
2022/06/28 03:05:07;;;;;;;;;;;13.30;99.90;;;;;;5111353;27;19920;-74
2022/06/28 03:07:32;;;;;;;;;;;13.30;99.90;;;;;;5126660;27;19927;-74
2022/06/28 03:09:58;;;;;;;;;;;13.30;99.90;;;;;;5121384;27;20010;-74
2022/06/28 03:12:23;;;;;;;;;;;13.30;99.90;;;;;;5126029;27;20563;-74
2022/06/28 03:14:49;;;;;;;;;;;13.20;99.90;;;;;;5130213;27;19944;-74
2022/06/28 03:17:14;;;;;;;;;;;13.20;99.90;;;;;;5116864;27;19999;-74
2022/06/28 03:19:40;;;;;;;;;;;13.20;99.90;;;;;;5129875;27;19926;-74
2022/06/28 03:22:06;;;;;;;;;;;13.20;99.90;;;;;;5126006;27;19938;-74
2022/06/28 03:24:31;;;;;;;;;;;13.20;99.90;;;;;;5130582;27;19919;-75
2022/06/28 03:26:57;;;;;;;;;;;13.20;99.90;;;;;;5117009;27;19920;-75
2022/06/28 03:29:22;;;;;;;;;;;13.20;99.90;;;;;;5121855;27;19920;-74
2022/06/28 03:31:49;;;;;;;;;;;13.10;99.90;;;;;;5122106;27;19926;-74
2022/06/28 03:34:14;;;;;;;;;;;13.10;99.90;;;;;;5109840;28;20347;-74
2022/06/28 03:36:40;;;;;;;;;;;13.10;99.90;;;;;;5110285;28;19920;-74
2022/06/28 03:39:06;;;;;;;;;;;13.10;99.90;;;;;;5121616;27;19964;-75
2022/06/28 03:41:31;;;;;;;;;;;13.10;99.90;;;;;;5129821;27;19989;-74
2022/06/28 03:43:57;;;;;;;;;;;13.10;99.90;;;;;;5130332;27;20361;-74
2022/06/28 03:46:22;;;;;;;;;;;13.10;99.90;;;;;;5116793;28;20002;-75
2022/06/28 03:48:48;;;;;;;;;;;13.10;99.90;;;;;;5119624;28;19920;-74
2022/06/28 03:51:14;;;;;;;;;;;13.10;99.90;;;;;;5127926;28;19920;-74
2022/06/28 03:53:40;;;;;;;;;;;13.20;99.90;;;;;;5119107;27;19926;-74
2022/06/28 03:56:06;;;;;;;;;;;13.20;99.90;;;;;;5120748;28;19985;-74
2022/06/28 03:58:31;;;;;;;;;;;13.20;99.90;;;;;;5130004;27;19926;-74
2022/06/28 04:00:57;;;;;;;;;;;13.20;99.90;;;;;;5119217;28;19919;-74
2022/06/28 04:03:22;;;;;;;;;;;13.30;99.90;;;;;;5129550;28;19919;-74
2022/06/28 04:05:48;;;;;;;;;;;13.20;99.90;;;;;;5125098;27;19923;-74
2022/06/28 04:08:14;;;;;;;;;;;13.30;99.90;;;;;;5122287;28;20378;-74
2022/06/28 04:10:39;;;;;;;;;;;13.30;99.90;;;;;;5123094;28;19920;-74
2022/06/28 04:13:05;;;;;;;;;;;13.30;99.90;;;;;;5122739;28;19929;-74
2022/06/28 04:15:31;;;;;;;;;;;13.40;99.90;;;;;;5129557;28;20022;-74
2022/06/28 04:17:56;;;;;;;;;;;13.40;99.90;;;;;;5129742;28;19923;-74
2022/06/28 04:20:22;;;;;;;;;;;13.50;99.90;;;;;;5127942;27;20001;-74
2022/06/28 04:22:48;;;;;;;;;;;13.50;99.90;;;;;;5118263;28;19971;-74
2022/06/28 04:25:13;;;;;;;;;;;13.50;99.90;;;;;;5129891;28;19920;-75
2022/06/28 04:27:39;;;;;;;;;;;13.60;99.90;;;;;;5119866;28;19920;-75
2022/06/28 04:30:05;;;;;;;;;;;13.70;99.90;;;;;;5123677;28;20273;-74
2022/06/28 04:32:30;;;;;;;;;;;13.80;99.90;;;;;;5120938;27;20454;-74
2022/06/28 04:34:56;;;;;;;;;;;13.90;99.90;;;;;;5124553;28;19919;-74
2022/06/28 04:37:22;;;;;;;;;;;14.00;99.90;;;;;;5128328;28;19926;-74
2022/06/28 04:39:47;;;;;;;;;;;14.10;99.90;;;;;;5129608;28;19919;-74
2022/06/28 04:42:13;;;;;;;;;;;14.20;99.90;;;;;;5129430;28;20409;-74
2022/06/28 04:44:39;;;;;;;;;;;14.20;99.90;;;;;;5129526;27;19926;-75
2022/06/28 04:47:05;;;;;;;;;;;14.30;99.90;;;;;;5132638;27;19923;-74
2022/06/28 04:49:30;;;;;;;;;;;14.40;99.90;;;;;;5132810;27;20389;-75
2022/06/28 04:51:56;;;;;;;;;;;14.40;99.90;;;;;;5132072;27;19927;-74
2022/06/28 04:54:22;;;;;;;;;;;14.40;99.90;;;;;;5125827;27;19927;-74
2022/06/28 04:56:47;;;;;;;;;;;14.40;99.90;;;;;;5126073;27;19919;-74
2022/06/28 04:59:13;;;;;;;;;;;14.30;99.90;;;;;;5125082;27;19919;-74
2022/06/28 05:01:39;;;;;;;;;;;14.30;99.90;;;;;;5126180;27;19923;-74
2022/06/28 05:04:04;;;;;;;;;;;14.30;99.90;;;;;;5123942;27;19923;-74
2022/06/28 05:06:30;;;;;;;;;;;14.20;99.90;;;;;;5125715;27;19919;-74
2022/06/28 05:08:56;;;;;;;;;;;14.20;99.90;;;;;;5121970;27;19923;-74
2022/06/28 05:11:22;;;;;;;;;;;14.20;99.90;;;;;;5114159;27;20320;-74
2022/06/28 05:13:47;;;;;;;;;;;14.20;99.90;;;;;;5115586;27;19920;-74
2022/06/28 05:16:13;;;;;;;;;;;14.10;99.90;;;;;;5113088;28;19926;-74
2022/06/28 05:18:38;;;;;;;;;;;14.10;99.90;;;;;;5121723;27;20428;-74
2022/06/28 05:21:04;;;;;;;;;;;14.10;99.90;;;;;;5130758;27;19945;-74
2022/06/28 05:23:30;;;;;;;;;;;14.10;99.90;;;;;;5112733;28;20285;-74
2022/06/28 05:25:55;;;;;;;;;;;14.20;99.90;;;;;;5112359;28;19924;-74
2022/06/28 05:28:21;;;;;;;;;;;14.30;99.90;;;;;;5112573;27;20405;-74
2022/06/28 05:30:46;;;;;;;;;;;14.30;99.90;;;;;;5112132;27;20620;-75
2022/06/28 05:33:12;;;;;;;;;;;14.40;99.90;;;;;;5119029;27;19945;-74
2022/06/28 05:35:37;;;;;;;;;;;14.40;99.90;;;;;;5113021;27;20289;-74
2022/06/28 05:38:03;;;;;;;;;;;14.50;99.90;;;;;;5112965;27;19920;-73
2022/06/28 05:40:29;;;;;;;;;;;14.50;99.90;;;;;;5123655;27;19930;-73
2022/06/28 05:42:54;;;;;;;;;;;14.60;99.90;;;;;;5120051;27;20393;-73
2022/06/28 05:45:20;;;;;;;;;;;14.60;99.90;;;;;;5114476;27;19920;-74
2022/06/28 05:47:45;;;;;;;;;;;14.70;99.90;;;;;;5116712;27;20326;-74
2022/06/28 05:50:11;;;;;;;;;;;14.70;99.90;;;;;;5113055;27;19920;-75
2022/06/28 05:52:37;;;;;;;;;;;14.70;99.90;;;;;;5113487;27;19923;-75
2022/06/28 05:55:03;;;;;;;;;;;14.80;99.90;;;;;;5112256;27;19924;-75
2022/06/28 05:57:28;;;;;;;;;;;14.90;99.90;;;;;;5122111;27;19972;-75
2022/06/28 05:59:54;;;;;;;;;;;14.90;99.90;;;;;;5117696;27;19923;-75
2022/06/28 06:02:19;;;;;;;;;;;15.00;99.90;;;;;;5121295;27;19919;-75
2022/06/28 06:04:45;;;;;;;;;;;15.00;99.90;;;;;;5114726;27;20387;-75
2022/06/28 06:07:10;;;;;;;;;;;15.00;99.90;;;;;;5131876;27;19950;-75
2022/06/28 06:09:36;;;;;;;;;;;15.10;99.90;;;;;;5127648;27;19920;-75
2022/06/28 06:12:05;;;;;;;;;;;15.10;99.90;;;;;;5122967;27;19919;-75
2022/06/28 06:14:30;;;;;;;;;;;15.20;99.90;;;;;;5130185;27;19928;-75
2022/06/28 06:16:56;;;;;;;;;;;15.30;99.90;;;;;;5120137;27;19927;-75
2022/06/28 06:19:21;;;;;;;;;;;15.30;99.90;;;;;;5111706;27;19924;-75
2022/06/28 06:21:47;;;;;;;;;;;15.30;99.90;;;;;;5116218;27;19973;-75
2022/06/28 06:24:13;;;;;;;9.52;7.65;;;15.40;99.90;;;;;;5123075;27;20007;-75
2022/06/28 06:26:38;;;;;;;12.30;8.33;;;15.50;99.90;;;;;;5119886;27;20424;-75
2022/06/28 06:29:04;;;;;;;11.70;9.07;;;15.50;99.90;;;;;;5110492;27;20468;-75
2022/06/28 06:31:30;;;;;;;12.10;8.27;;;15.50;99.90;;;;;;5114648;27;20420;-76
2022/06/28 06:33:56;;;;;;;13.20;8.83;;;15.60;99.90;;;;;;5121748;27;20416;-75
2022/06/28 06:36:22;;;;;;;13.73;8.45;;;15.60;99.90;;;;;;5113038;27;20975;-75
2022/06/28 06:38:48;;;;;;;11.07;7.47;;;15.70;99.90;;;;;;5112719;27;20392;-76
2022/06/28 06:41:13;;;;;;;11.53;6.50;;;15.80;99.90;;;;;;5115601;27;20438;-75
2022/06/28 06:43:39;;;;;;;9.18;6.25;;;15.90;99.90;;;;;;5112855;27;20426;-76
2022/06/28 06:46:05;;;;;;;12.17;6.60;;;15.90;99.90;;;;;;5119825;27;20786;-75
2022/06/28 06:48:30;;;;;;;11.65;5.88;;;16.00;99.90;;;;;;5121547;27;20541;-76
2022/06/28 06:50:56;;;;;;;9.03;5.20;;;16.00;99.90;;;;;;5108640;28;20409;-75
2022/06/28 06:53:22;;;;;;;9.43;5.35;;;16.10;99.90;;;;;;5109277;27;20480;-76
2022/06/28 06:55:48;;;;;;;8.27;4.90;;;16.20;99.90;;;;;;5096666;28;20475;-76
2022/06/28 06:58:14;;;;;;;11.02;5.20;;;16.30;99.90;;;;;;5113760;27;20400;-76
2022/06/28 07:00:40;;;;;;;8.38;4.45;;;16.30;99.90;;;;;;5122875;27;20422;-75
2022/06/28 07:03:05;;;;;;;10.20;4.90;;;16.40;99.90;;;;;;5124854;27;20405;-75
2022/06/28 07:05:31;;;;;;;10.00;5.13;;;16.50;99.90;;;;;;5116418;27;21573;-75
2022/06/28 07:07:57;;;;;;;8.27;4.07;;;16.60;99.90;;;;;;5121515;27;20466;-75
2022/06/28 07:10:23;;;;;;;8.98;3.00;;;16.60;99.90;;;;;;5109904;28;20043;-75
2022/06/28 07:12:49;;;;;;;;;;;16.70;99.90;;;;;;5111726;27;20035;-75
2022/06/28 07:15:15;;;;;;;;;;;16.60;99.90;;;;;;5113353;27;19924;-75
2022/06/28 07:17:40;;;;;;;;;;;16.60;99.90;;;;;;5114442;27;19920;-76
2022/06/28 07:20:06;;;;;;;;;;;16.70;99.90;;;;;;5114135;27;19997;-75
2022/06/28 07:22:33;;;;;;;;;;;16.80;99.90;;;;;;5124358;27;19919;-75
2022/06/28 07:24:59;;;;;;;;;;;16.90;99.90;;;;;;5110139;28;20068;-75
2022/06/28 07:27:25;;;;;;;;;;;16.90;99.90;;;;;;5127049;27;20305;-75
2022/06/28 07:29:51;;;;;;;;;;;17.00;99.90;;;;;;5127867;27;19919;-75
2022/06/28 07:32:16;;;;;;;;;;;17.10;99.90;;;;;;5114251;27;19920;-75
2022/06/28 07:34:42;;;;;;;;;;;17.20;99.90;;;;;;5114373;27;19919;-75
2022/06/28 07:37:07;;;;;;;;;;;17.20;99.90;;;;;;5118984;27;19919;-75
2022/06/28 07:39:33;;;;;;;;;;;17.30;99.90;;;;;;5121230;27;19919;-73
2022/06/28 07:41:58;;;;;;;;;;;17.30;99.90;;;;;;5121677;27;19923;-73
2022/06/28 07:44:24;;;;;;;;;;;17.50;99.90;;;;;;5121653;27;20049;-75
2022/06/28 07:46:49;;;;;;;;;;;17.60;99.90;;;;;;5115734;28;20006;-75
2022/06/28 07:49:15;;;;;;;11.32;2.42;;;17.70;99.90;;;;;;5091812;28;20350;-75
2022/06/28 07:54:24;;;;;;;7.28;2.30;;;17.70;99.90;;;;;;5122057;28;20417;-76
2022/06/28 07:56:50;;;;;;;5.80;2.53;;;17.70;99.90;;;;;;5108334;28;20994;-75
2022/06/28 07:59:16;;;;;;;6.47;2.22;;;17.60;99.90;;;;;;5107090;28;20457;-75
2022/06/28 08:01:41;;;;;;;6.00;1.83;;;17.70;99.90;;;;;;5109055;28;20047;-75
2022/06/28 08:04:08;;;;;;;5.65;1.60;;;17.80;99.90;;;;;;5120966;28;20040;-75
2022/06/28 08:06:34;;;;;;;4.90;1.50;;;17.90;99.90;;;;;;5108766;28;20043;-75
2022/06/28 08:09:00;;;;;;;;;;;17.90;99.90;;;;;;5110580;28;20043;-75
2022/06/28 08:11:25;;;;;;;;;;;17.90;99.90;;;;;;5110303;28;19920;-75
2022/06/28 08:13:52;;;;;;;;;;;17.90;99.90;;;;;;5111775;28;20412;-75
2022/06/28 08:16:18;;;;;;;;;;;18.00;99.90;;;;;;5128905;28;20020;-75
2022/06/28 08:18:44;;;;;;;;;;;18.20;99.90;;;;;;5129360;27;19929;-75
2022/06/28 08:21:10;;;;;;;;;;;18.20;99.90;;;;;;5125601;27;20375;-75
2022/06/28 08:23:35;;;;;;;;;;;18.20;99.90;;;;;;5114140;27;20010;-75
2022/06/28 08:26:01;;;;;;;;;;;18.20;99.90;;;;;;5120495;27;20274;-75
2022/06/28 08:28:26;;;;;;;;;;;18.20;99.90;;;;;;5120191;27;19963;-76
2022/06/28 08:30:52;;;;;;;;;;;18.30;99.90;;;;;;5113983;27;19973;-76
2022/06/28 08:33:18;;;;;;;;;;;18.30;99.90;;;;;;5113730;28;20381;-75
2022/06/28 08:35:43;;;;;;;;;;;18.30;99.90;;;;;;5133718;27;20397;-75
2022/06/28 08:38:09;;;;;;;;;;;18.40;99.90;;;;;;5120298;27;20022;-76
2022/06/28 08:40:35;;;;;;;;;;;18.50;99.90;;;;;;5133240;27;20511;-75
2022/06/28 08:43:00;;;;;;;;;;;18.60;99.90;;;;;;5133069;27;20350;-75
2022/06/28 08:45:26;;;;;;;;;;;18.60;99.90;;;;;;5133363;27;20457;-75
2022/06/28 08:47:56;;;;;;;;;;;18.70;99.90;;;;;;5132321;27;19919;-76
2022/06/28 08:50:24;;;;;;;;;;;18.90;99.90;;;;;;5121019;27;19919;-75
2022/06/28 08:52:51;;;;;;;;;;;19.00;99.90;;;;;;5118133;27;20377;-76
2022/06/28 08:55:17;;;;;;;;;;;19.20;99.90;;;;;;5133759;27;20009;-76
2022/06/28 08:57:43;;;;;;;;;;;19.30;99.90;;;;;;5132990;27;19998;-76
2022/06/28 09:00:10;;;;;;;;;;;19.40;99.90;;;;;;5125906;27;19927;-75
2022/06/28 09:02:35;;;;;;;;;;;19.50;99.90;;;;;;5125543;27;19919;-75
2022/06/28 09:05:01;;;;;;;;;;;19.40;99.90;;;;;;5120630;27;19926;-76
2022/06/28 09:07:27;;;;;;;;;;;19.40;99.90;;;;;;5132101;27;19927;-76
2022/06/28 09:09:53;;;;;;;;;;;19.50;99.90;;;;;;5133111;27;19967;-75
2022/06/28 09:12:19;;;;;;;;;;;19.50;99.90;;;;;;5133096;27;19919;-76
2022/06/28 09:14:45;;;;;;;;;;;19.40;99.90;;;;;;5124015;27;19967;-76
2022/06/28 09:17:17;;;;;;;;;;;19.50;99.90;;;;;;5124700;27;19972;-75
2022/06/28 09:19:42;;;;;;;;;;;19.70;99.90;;;;;;5112941;28;19926;-76
2022/06/28 09:22:07;;;;;;;;;;;19.80;99.90;;;;;;5113200;27;19919;-76
2022/06/28 09:24:33;;;;;;;;;;;20.00;99.90;;;;;;5133556;27;19920;-76
2022/06/28 09:27:00;;;;;;;;;;;20.20;99.90;;;;;;5132930;27;19967;-75
2022/06/28 09:29:26;;;;;;;4.97;0.77;;;20.30;99.90;;;;;;5123632;27;19920;-75
2022/06/28 09:31:52;;;;;;;4.45;0.70;;;20.30;99.90;;;;;;5125211;27;20122;-75
2022/06/28 09:34:17;;;;;;;5.93;0.80;;;20.40;99.90;;;;;;5121053;27;20070;-76
2022/06/28 09:36:56;;;;;;;;;;;20.60;99.90;;;;;;5131651;27;20031;-76
2022/06/28 09:39:26;;;;;;;6.55;0.85;;;20.90;99.90;;;;;;5121541;27;19930;-76
2022/06/28 09:41:53;;;;;;;4.45;0.50;;;21.20;99.90;;;;;;5128817;27;20036;-76
2022/06/28 09:44:25;;;;;;;;;;;21.50;99.90;;;;;;5121390;27;20079;-76
2022/06/28 09:46:52;;;;;;;;;;;21.50;99.90;;;;;;5125462;27;19919;-76
2022/06/28 09:49:18;;;;;;;;;;;21.70;99.90;;;;;;5124612;27;19919;-76
2022/06/28 09:51:45;;;;;;;4.63;0.60;;;21.90;99.90;;;;;;5117766;27;19926;-76
2022/06/28 09:54:11;;;;;;;;;;;21.90;99.90;;;;;;5131723;27;20042;-76
2022/06/28 09:56:40;;;;;;;;;;;22.20;99.90;;;;;;5117711;27;20403;-76
2022/06/28 09:59:06;;;;;;;;;;;22.50;99.90;;;;;;5131314;27;19926;-76
2022/06/28 10:01:33;;;;;;;;;;;22.90;99.90;;;;;;5129816;27;19923;-76
2022/06/28 10:03:58;;;;;;;;;;;23.10;99.90;;;;;;5131062;27;19919;-76
2022/06/28 10:06:24;;;;;;;;;;;23.30;99.90;;;;;;5116706;27;19919;-76
2022/06/28 10:08:50;;;;;;;;;;;23.40;99.90;;;;;;5118184;27;20753;-76
2022/06/28 10:11:16;;;;;;;;;;;23.20;99.90;;;;;;5124195;27;20374;-76
2022/06/28 10:16:49;;;;;;;;;;;22.70;99.90;;;;;;5121147;27;19920;-76
2022/06/28 10:19:19;;;;;;;;;;;22.80;99.90;;;;;;5116363;27;19930;-76
2022/06/28 10:21:56;;;;;;;;;;;23.20;99.90;;;;;;5099368;28;19926;-76
2022/06/28 10:24:22;;;;;;;;;;;23.60;99.90;;;;;;5111494;28;19919;-76
2022/06/28 10:27:26;;;;;;;;;;;23.70;99.40;;;;;;5125330;27;20278;-76
2022/06/28 10:29:57;;;;;;;;;;;23.60;99.90;;;;;;5048270;28;19924;-76
2022/06/28 10:32:49;;;;;;;;;;;23.40;99.10;;;;;;5035639;28;19921;-76
2022/06/28 10:35:33;;;;;;;;;;;23.10;98.80;;;;;;5079342;28;19919;-75
2022/06/28 10:38:07;;;;;;;;;;;22.80;99.10;;;;;;5123360;27;19920;-76
2022/06/28 10:40:45;;;;;;;;;;;22.60;99.50;;;;;;5116777;27;19920;-76
2022/06/28 10:43:11;;;;;;;;;;;22.50;99.30;;;;;;5117133;27;19919;-75
2022/06/28 10:45:55;;;;;;;;;;;22.30;99.60;;;;;;5122334;27;19975;-76
2022/06/28 10:48:21;;;;;;;;;;;22.20;99.90;;;;;;5124634;27;19920;-76
2022/06/28 10:51:05;;;;;;;;;;;22.10;99.30;;;;;;5121994;27;19919;-76
2022/06/28 10:53:50;;;;;;;;;;;22.00;99.30;;;;;;5131607;27;19927;-76
2022/06/28 10:56:16;;;;;;;;;;;21.80;99.00;;;;;;5130243;27;19920;-76
2022/06/28 10:58:58;;;;;;;;;;;21.70;99.90;;;;;;5130320;27;19919;-74
2022/06/28 11:01:47;;;;;;;;;;;21.70;99.90;;;;;;5130639;27;19926;-76
2022/06/28 11:04:18;;;;;;;;;;;21.90;99.90;;;;;;5101936;27;19966;-76
2022/06/28 11:06:45;;;;;;;;;;;22.30;99.90;;;;;;5118409;27;19920;-76
2022/06/28 11:09:48;;;;;;;5.97;0.77;;;22.70;99.60;;;;;;5109570;27;19927;-76
2022/06/28 11:12:35;;;;;;;;;;;23.10;99.80;;;;;;5114918;27;20116;-76
2022/06/28 11:15:05;;;;;;;;;;;23.40;98.90;;;;;;5112754;27;20301;-76
2022/06/28 11:17:38;;;;;;;;;;;23.50;97.50;;;;;;5119090;27;19923;-76
2022/06/28 11:20:03;;;;;;;;;;;23.40;96.90;;;;;;5112841;27;20389;-76
2022/06/28 11:22:30;;;;;;;;;;;23.30;97.80;;;;;;5118317;27;19919;-76
2022/06/28 11:24:57;;;;;;;;;;;23.50;97.60;;;;;;5117445;27;19920;-76
2022/06/28 11:27:24;;;;;;;;;;;23.60;97.50;;;;;;5118714;27;20018;-76
2022/06/28 11:30:02;;;;;;;;;;;23.70;98.00;;;;;;5109560;27;19923;-76
2022/06/28 11:32:32;;;;;;;4.82;0.80;;;23.80;97.20;;;;;;5115989;27;19992;-76
2022/06/28 11:35:01;;;;;;;;;;;24.00;97.40;;;;;;5108882;27;20126;-77
2022/06/28 11:37:27;;;;;;;;;;;24.40;97.20;;;;;;5110279;27;20357;-76
2022/06/28 11:39:54;;;;;;;;;;;24.60;95.20;;;;;;5108899;27;20266;-76
2022/06/28 11:42:19;;;;;;;;;;;24.90;95.30;;;;;;5113539;27;20018;-76
2022/06/28 11:44:46;;;;;;;;;;;25.10;95.40;;;;;;5125342;27;20064;-75
2022/06/28 11:47:11;;;;;;;;;;;25.30;93.90;;;;;;5113361;27;19923;-74
2022/06/28 11:49:37;;;;;;;;;;;25.60;93.20;;;;;;5119946;28;20377;-74
2022/06/28 11:52:02;;;;;;;;;;;25.80;93.40;;;;;;5120876;28;20369;-74
2022/06/28 11:54:28;;;;;;;;;;;26.10;93.70;;;;;;5124768;27;19920;-74
2022/06/28 11:56:53;;;;;;;;;;;26.40;92.70;;;;;;5121955;27;20016;-74
2022/06/28 11:59:19;;;;;;;;;;;26.60;93.10;;;;;;5118361;27;19924;-74
2022/06/28 12:01:45;;;;;;;;;;;26.90;92.70;;;;;;5106809;27;20015;-74
2022/06/28 12:04:19;;;;;;;;;;;26.90;90.10;;;;;;5126810;27;20373;-74
2022/06/28 12:06:44;;;;;;;;;;;27.00;90.50;;;;;;5114485;27;20381;-74
2022/06/28 12:09:11;;;;;;;;;;;27.10;90.40;;;;;;5114385;28;19973;-73
2022/06/28 12:11:39;;;;;;;;;;;27.30;85.30;;;;;;5112233;27;20382;-74
2022/06/28 12:14:06;;;;;;;;;;;27.20;86.40;;;;;;5125056;27;19920;-74
2022/06/28 12:16:34;;;;;;;;;;;27.10;87.50;;;;;;5117058;27;19926;-74
2022/06/28 12:19:00;;;;;;;;;;;27.10;83.80;;;;;;5122463;27;20415;-74
2022/06/28 12:21:28;;;;;;;;;;;27.30;88.30;;;;;;5113830;27;19920;-75
2022/06/28 12:23:54;;;;;;;;;;;27.60;86.40;;;;;;5119322;27;20029;-75
2022/06/28 12:26:20;;;;;;;;;;;27.80;84.10;;;;;;5119746;27;19919;-74
2022/06/28 12:28:48;;;;;;;;;;;27.80;84.90;;;;;;5115076;27;19967;-75
2022/06/28 12:31:14;;;;;;;;;;;27.90;83.30;;;;;;5112883;27;19927;-75
2022/06/28 12:33:39;;;;;;;;;;;28.10;82.30;;;;;;5125486;27;19995;-75
2022/06/28 12:36:05;;;;;;;;;;;28.00;80.30;;;;;;5125027;27;19973;-75
2022/06/28 12:38:30;;;;;;;;;;;27.80;80.40;;;;;;5123520;27;19927;-75
2022/06/28 12:40:56;;;;;;;;;;;27.40;78.50;;;;;;5122365;27;20415;-75
2022/06/28 12:43:22;;;;;;;;;;;27.00;80.00;;;;;;5106356;27;19920;-74
2022/06/28 12:45:48;;;;;;;;;;;26.80;80.80;;;;;;5129841;27;20014;-75
2022/06/28 12:48:13;;;;;;;;;;;26.60;80.00;;;;;;5117828;27;19923;-75
2022/06/28 12:50:39;;;;;;;;;;;26.50;78.10;;;;;;5121083;27;19981;-75
2022/06/28 12:53:04;;;;;;;;;;;26.40;81.50;;;;;;5130806;27;20015;-75
2022/06/28 12:55:30;;;;;;;;;;;26.20;82.10;;;;;;5119422;27;19919;-75
2022/06/28 12:57:56;;;;;;;;;;;26.00;81.20;;;;;;5129150;27;19923;-75
2022/06/28 13:00:21;;;;;;;;;;;25.90;83.30;;;;;;5113902;28;19924;-75
2022/06/28 13:02:47;;;;;;;;;;;25.80;82.70;;;;;;5118700;27;20025;-75
2022/06/28 13:05:12;;;;;;;;;;;25.70;80.80;;;;;;5125750;27;19919;-75
2022/06/28 13:07:41;;;;;;;;;;;25.90;82.20;;;;;;5100359;27;19990;-76
2022/06/28 13:10:10;;;;;;;;;;;26.00;80.40;;;;;;5126383;27;19971;-75
2022/06/28 13:12:36;;;;;;;;;;;25.90;81.60;;;;;;5121991;27;19927;-76
2022/06/28 13:15:01;;;;;;;;;;;25.80;80.60;;;;;;5113704;27;20010;-75
2022/06/28 13:17:27;;;;;;;;;;;25.80;81.60;;;;;;5120766;27;20376;-75
2022/06/28 13:19:53;;;;;;;;;;;25.70;80.10;;;;;;5121070;27;19930;-75
2022/06/28 13:22:18;;;;;;;;;;;25.80;81.60;;;;;;5125056;27;19927;-75
2022/06/28 13:24:44;;;;;;;;;;;26.20;82.30;;;;;;5121002;27;20053;-75
2022/06/28 13:27:09;;;;;;;;;;;26.70;82.70;;;;;;5117862;27;19924;-76
2022/06/28 13:29:35;;;;;;;;;;;26.90;79.80;;;;;;5111498;28;19920;-75
2022/06/28 13:32:00;;;;;;;;;;;26.80;73.00;;;;;;5119339;27;19919;-76
2022/06/28 13:34:26;;;;;;;;;;;26.70;79.20;;;;;;5119842;27;19927;-76
2022/06/28 13:36:52;;;;;;;;;;;26.80;76.00;;;;;;5124687;27;20039;-76
2022/06/28 13:39:17;;;;;;;;;;;27.10;73.00;;;;;;5112873;27;19942;-76
2022/06/28 13:41:43;;;;;;;;;;;27.50;71.30;;;;;;5124780;27;19942;-76
2022/06/28 13:44:10;;;;;;;;;;;27.80;68.00;;;;;;5122569;27;19924;-75
2022/06/28 13:46:36;;;;;;;;;;;28.00;72.50;;;;;;5112187;27;20036;-76
2022/06/28 13:49:01;;;;;;;;;;;28.10;72.40;;;;;;5111346;27;20010;-76
2022/06/28 13:51:29;;;;;;;;;;;28.00;66.00;;;;;;5118862;27;20297;-76
2022/06/28 13:53:55;;;;;;;;;;;27.80;68.90;;;;;;5124769;27;19924;-76
2022/06/28 13:56:20;;;;;;;;;;;27.70;69.80;;;;;;5119642;27;20014;-76
2022/06/28 13:58:46;;;;;;;;;;;27.60;69.50;;;;;;5131546;27;20026;-76
2022/06/28 14:01:11;;;;;;;;;;;28.00;70.10;;;;;;5130773;27;19982;-76
2022/06/28 14:03:37;;;;;;;;;;;28.30;68.10;;;;;;5119522;27;19926;-76
2022/06/28 14:06:02;;;;;;;;;;;28.30;69.20;;;;;;5124316;27;20408;-76
2022/06/28 14:08:28;;;;;;;;;;;28.00;68.20;;;;;;5119754;27;19988;-76
2022/06/28 14:10:54;;;;;;;;;;;27.90;68.90;;;;;;5130860;27;19919;-76
2022/06/28 14:13:22;;;;;;;;;;;27.80;65.50;;;;;;5129924;27;19919;-76
2022/06/28 14:15:47;;;;;;;;;;;27.50;65.80;;;;;;5128575;27;20011;-76